sensor_id;sensor_type;location;lat;lon;timestamp;pressure;altitude;pressure_sealevel;temperature;humidity
78117;BME280;69042;59.120;37.904;2023-09-30T00:00:57;100151.78;;;15.45;79.55
78117;BME280;69042;59.120;37.904;2023-09-30T00:03:23;100150.91;;;15.44;79.57
78117;BME280;69042;59.120;37.904;2023-09-30T00:05:50;100155.41;;;15.42;79.59
78117;BME280;69042;59.120;37.904;2023-09-30T00:08:16;100149.59;;;15.37;79.51
78117;BME280;69042;59.120;37.904;2023-09-30T00:10:42;100157.56;;;15.35;79.53
78117;BME280;69042;59.120;37.904;2023-09-30T00:13:08;100155.13;;;15.32;79.57
78117;BME280;69042;59.120;37.904;2023-09-30T00:15:34;100151.84;;;15.29;79.61
78117;BME280;69042;59.120;37.904;2023-09-30T00:18:01;100146.78;;;15.26;79.57
78117;BME280;69042;59.120;37.904;2023-09-30T00:20:28;100149.47;;;15.24;79.67
78117;BME280;69042;59.120;37.904;2023-09-30T00:22:54;100155.78;;;15.22;79.64
78117;BME280;69042;59.120;37.904;2023-09-30T00:25:20;100148.09;;;15.18;79.77
78117;BME280;69042;59.120;37.904;2023-09-30T00:27:47;100142.91;;;15.17;79.67
78117;BME280;69042;59.120;37.904;2023-09-30T00:30:14;100143.03;;;15.15;79.64
78117;BME280;69042;59.120;37.904;2023-09-30T00:32:40;100141.22;;;15.16;79.70
78117;BME280;69042;59.120;37.904;2023-09-30T00:35:07;100134.47;;;15.12;80.01
78117;BME280;69042;59.120;37.904;2023-09-30T00:37:42;100140.47;;;15.14;79.75
78117;BME280;69042;59.120;37.904;2023-09-30T00:40:09;100143.19;;;15.12;79.27
78117;BME280;69042;59.120;37.904;2023-09-30T00:42:41;100143.94;;;15.14;79.98
78117;BME280;69042;59.120;37.904;2023-09-30T00:45:08;100142.34;;;15.12;79.94
78117;BME280;69042;59.120;37.904;2023-09-30T00:48:01;100143.09;;;15.14;80.11
78117;BME280;69042;59.120;37.904;2023-09-30T00:50:27;100136.25;;;15.11;79.93
78117;BME280;69042;59.120;37.904;2023-09-30T00:52:54;100144.91;;;15.13;80.14
78117;BME280;69042;59.120;37.904;2023-09-30T00:55:21;100137.84;;;15.14;80.11
78117;BME280;69042;59.120;37.904;2023-09-30T00:57:48;100141.22;;;15.16;80.18
78117;BME280;69042;59.120;37.904;2023-09-30T01:00:14;100142.06;;;15.16;80.17
78117;BME280;69042;59.120;37.904;2023-09-30T01:02:41;100134.09;;;15.18;80.12
78117;BME280;69042;59.120;37.904;2023-09-30T01:05:08;100134.94;;;15.18;79.97
78117;BME280;69042;59.120;37.904;2023-09-30T01:07:35;100133.13;;;15.19;80.21
78117;BME280;69042;59.120;37.904;2023-09-30T01:10:02;100140.19;;;15.18;79.83
78117;BME280;69042;59.120;37.904;2023-09-30T01:12:28;100145.38;;;15.20;79.97
78117;BME280;69042;59.120;37.904;2023-09-30T01:14:58;100136.59;;;15.19;80.03
78117;BME280;69042;59.120;37.904;2023-09-30T01:17:26;100122.81;;;15.16;80.12
78117;BME280;69042;59.120;37.904;2023-09-30T01:19:52;100132.22;;;15.20;79.91
78117;BME280;69042;59.120;37.904;2023-09-30T01:22:18;100131.25;;;15.21;79.91
78117;BME280;69042;59.120;37.904;2023-09-30T01:24:44;100125.25;;;15.19;79.82
78117;BME280;69042;59.120;37.904;2023-09-30T01:27:13;100124.47;;;15.17;79.78
78117;BME280;69042;59.120;37.904;2023-09-30T01:29:42;100124.59;;;15.15;79.61
78117;BME280;69042;59.120;37.904;2023-09-30T01:32:08;100103.06;;;15.09;79.67
78117;BME280;69042;59.120;37.904;2023-09-30T01:34:36;100115.19;;;15.11;79.70
78117;BME280;69042;59.120;37.904;2023-09-30T01:37:02;100111.81;;;15.09;79.83
78117;BME280;69042;59.120;37.904;2023-09-30T01:39:28;100113.69;;;15.07;79.85
78117;BME280;69042;59.120;37.904;2023-09-30T01:41:56;100116.31;;;15.07;79.89
78117;BME280;69042;59.120;37.904;2023-09-30T01:44:22;100116.50;;;15.04;79.76
78117;BME280;69042;59.120;37.904;2023-09-30T01:46:48;100106.81;;;15.05;79.93
78117;BME280;69042;59.120;37.904;2023-09-30T01:49:14;100111.25;;;15.04;79.91
78117;BME280;69042;59.120;37.904;2023-09-30T01:51:41;100113.00;;;15.04;80.10
78117;BME280;69042;59.120;37.904;2023-09-30T01:54:07;100112.94;;;15.05;80.09
78117;BME280;69042;59.120;37.904;2023-09-30T01:56:34;100095.34;;;15.06;80.17
78117;BME280;69042;59.120;37.904;2023-09-30T01:59:00;100107.56;;;15.07;80.15
78117;BME280;69042;59.120;37.904;2023-09-30T02:01:27;100103.06;;;15.09;80.13
78117;BME280;69042;59.120;37.904;2023-09-30T02:03:53;100102.97;;;15.10;80.24
78117;BME280;69042;59.120;37.904;2023-09-30T02:06:20;100101.06;;;15.12;80.17
78117;BME280;69042;59.120;37.904;2023-09-30T02:08:46;100088.88;;;15.11;80.21
78117;BME280;69042;59.120;37.904;2023-09-30T02:11:13;100100.03;;;15.15;80.20
78117;BME280;69042;59.120;37.904;2023-09-30T02:13:41;100099.13;;;15.16;80.18
78117;BME280;69042;59.120;37.904;2023-09-30T02:16:12;100085.97;;;15.16;80.17
78117;BME280;69042;59.120;37.904;2023-09-30T02:18:39;100094.59;;;15.18;79.93
78117;BME280;69042;59.120;37.904;2023-09-30T02:21:07;100083.13;;;15.19;80.13
78117;BME280;69042;59.120;37.904;2023-09-30T02:23:35;100089.06;;;15.23;80.12
78117;BME280;69042;59.120;37.904;2023-09-30T02:26:02;100081.91;;;15.25;80.26
78117;BME280;69042;59.120;37.904;2023-09-30T02:28:29;100086.13;;;15.27;79.92
78117;BME280;69042;59.120;37.904;2023-09-30T02:31:00;100080.13;;;15.25;79.94
78117;BME280;69042;59.120;37.904;2023-09-30T02:33:26;100085.09;;;15.30;79.85
78117;BME280;69042;59.120;37.904;2023-09-30T02:35:53;100086.03;;;15.29;79.71
78117;BME280;69042;59.120;37.904;2023-09-30T02:38:19;100081.72;;;15.28;79.62
78117;BME280;69042;59.120;37.904;2023-09-30T02:40:47;100074.03;;;15.25;79.48
78117;BME280;69042;59.120;37.904;2023-09-30T02:43:14;100071.56;;;15.22;79.41
78117;BME280;69042;59.120;37.904;2023-09-30T02:45:40;100069.03;;;15.20;79.50
78117;BME280;69042;59.120;37.904;2023-09-30T02:48:06;100073.63;;;15.16;79.41
78117;BME280;69042;59.120;37.904;2023-09-30T02:50:34;100072.88;;;15.14;79.33
78117;BME280;69042;59.120;37.904;2023-09-30T02:53:00;100067.81;;;15.11;79.37
78117;BME280;69042;59.120;37.904;2023-09-30T02:55:27;100077.59;;;15.09;79.44
78117;BME280;69042;59.120;37.904;2023-09-30T02:57:53;100072.50;;;15.06;79.56
78117;BME280;69042;59.120;37.904;2023-09-30T03:00:19;100071.78;;;15.04;79.54
78117;BME280;69042;59.120;37.904;2023-09-30T03:03:00;100077.97;;;15.03;79.44
78117;BME280;69042;59.120;37.904;2023-09-30T03:05:27;100066.50;;;15.04;79.70
78117;BME280;69042;59.120;37.904;2023-09-30T03:07:56;100055.88;;;15.06;79.79
78117;BME280;69042;59.120;37.904;2023-09-30T03:10:22;100059.25;;;15.08;80.09
78117;BME280;69042;59.120;37.904;2023-09-30T03:12:53;100057.28;;;15.11;80.01
78117;BME280;69042;59.120;37.904;2023-09-30T03:15:20;100058.06;;;15.13;80.12
78117;BME280;69042;59.120;37.904;2023-09-30T03:17:46;100051.81;;;15.14;79.75
78117;BME280;69042;59.120;37.904;2023-09-30T03:20:12;100054.47;;;15.14;79.93
78117;BME280;69042;59.120;37.904;2023-09-30T03:22:41;100054.47;;;15.14;79.72
78117;BME280;69042;59.120;37.904;2023-09-30T03:25:17;100050.16;;;15.13;79.47
78117;BME280;69042;59.120;37.904;2023-09-30T03:27:45;100048.44;;;15.12;79.58
78117;BME280;69042;59.120;37.904;2023-09-30T03:30:13;100049.41;;;15.11;79.70
78117;BME280;69042;59.120;37.904;2023-09-30T03:32:41;100044.22;;;15.10;79.67
78117;BME280;69042;59.120;37.904;2023-09-30T03:35:09;100042.44;;;15.10;79.63
78117;BME280;69042;59.120;37.904;2023-09-30T03:37:55;100045.06;;;15.10;79.63
78117;BME280;69042;59.120;37.904;2023-09-30T03:40:21;100046.00;;;15.09;79.82
78117;BME280;69042;59.120;37.904;2023-09-30T03:42:53;100041.13;;;15.03;79.55
78117;BME280;69042;59.120;37.904;2023-09-30T03:45:19;100041.78;;;15.07;79.77
78117;BME280;69042;59.120;37.904;2023-09-30T03:47:46;100036.63;;;15.05;79.77
78117;BME280;69042;59.120;37.904;2023-09-30T03:50:14;100041.88;;;15.05;79.77
78117;BME280;69042;59.120;37.904;2023-09-30T03:52:42;100038.41;;;15.05;79.90
78117;BME280;69042;59.120;37.904;2023-09-30T03:55:13;100041.03;;;15.05;79.67
78117;BME280;69042;59.120;37.904;2023-09-30T03:57:41;100033.16;;;15.05;79.79
78117;BME280;69042;59.120;37.904;2023-09-30T04:00:08;100031.34;;;15.05;79.84
78117;BME280;69042;59.120;37.904;2023-09-30T04:02:42;100033.03;;;15.06;79.96
78117;BME280;69042;59.120;37.904;2023-09-30T04:05:09;100032.31;;;15.04;79.82
78117;BME280;69042;59.120;37.904;2023-09-30T04:07:37;100035.66;;;15.06;79.67
78117;BME280;69042;59.120;37.904;2023-09-30T04:10:03;100033.78;;;15.08;79.85
78117;BME280;69042;59.120;37.904;2023-09-30T04:12:30;100034.53;;;15.10;79.95
78117;BME280;69042;59.120;37.904;2023-09-30T04:14:58;100034.44;;;15.12;79.83
78117;BME280;69042;59.120;37.904;2023-09-30T04:17:25;100032.47;;;15.15;80.01
78117;BME280;69042;59.120;37.904;2023-09-30T04:19:54;100025.31;;;15.17;79.80
78117;BME280;69042;59.120;37.904;2023-09-30T04:22:20;100026.06;;;15.19;79.62
78117;BME280;69042;59.120;37.904;2023-09-30T04:24:51;100024.94;;;15.24;79.83
78117;BME280;69042;59.120;37.904;2023-09-30T04:27:17;100020.50;;;15.24;79.83
78117;BME280;69042;59.120;37.904;2023-09-30T04:29:43;100018.44;;;15.29;79.74
78117;BME280;69042;59.120;37.904;2023-09-30T04:32:10;100019.19;;;15.31;79.76
78117;BME280;69042;59.120;37.904;2023-09-30T04:34:36;100025.94;;;15.35;79.73
78117;BME280;69042;59.120;37.904;2023-09-30T04:37:02;100020.50;;;15.38;79.65
78117;BME280;69042;59.120;37.904;2023-09-30T04:39:29;100027.34;;;15.41;79.73
78117;BME280;69042;59.120;37.904;2023-09-30T04:41:55;100027.25;;;15.43;79.52
78117;BME280;69042;59.120;37.904;2023-09-30T04:44:22;100020.13;;;15.45;79.51
78117;BME280;69042;59.120;37.904;2023-09-30T04:46:53;100021.50;;;15.50;79.37
78117;BME280;69042;59.120;37.904;2023-09-30T04:49:22;100018.88;;;15.50;79.29
78117;BME280;69042;59.120;37.904;2023-09-30T04:51:49;100016.13;;;15.52;79.26
78117;BME280;69042;59.120;37.904;2023-09-30T04:54:15;100008.13;;;15.53;79.23
78117;BME280;69042;59.120;37.904;2023-09-30T04:56:41;100010.75;;;15.53;79.18
78117;BME280;69042;59.120;37.904;2023-09-30T04:59:08;100010.56;;;15.56;79.35
78117;BME280;69042;59.120;37.904;2023-09-30T05:01:34;100019.31;;;15.57;79.20
78117;BME280;69042;59.120;37.904;2023-09-30T05:04:00;100015.63;;;15.59;79.26
78117;BME280;69042;59.120;37.904;2023-09-30T05:06:26;100023.44;;;15.61;79.28
78117;BME280;69042;59.120;37.904;2023-09-30T05:08:53;100026.72;;;15.65;79.17
78117;BME280;69042;59.120;37.904;2023-09-30T05:11:19;100027.47;;;15.67;79.20
78117;BME280;69042;59.120;37.904;2023-09-30T05:13:46;100026.34;;;15.71;79.12
78117;BME280;69042;59.120;37.904;2023-09-30T05:16:12;100023.63;;;15.72;79.02
78117;BME280;69042;59.120;37.904;2023-09-30T05:18:39;100013.00;;;15.74;79.11
78117;BME280;69042;59.120;37.904;2023-09-30T05:21:05;100022.59;;;15.75;78.95
78117;BME280;69042;59.120;37.904;2023-09-30T05:23:32;100021.53;;;15.77;79.36
78117;BME280;69042;59.120;37.904;2023-09-30T05:25:58;100003.09;;;15.77;79.08
78117;BME280;69042;59.120;37.904;2023-09-30T05:28:24;100008.16;;;15.80;79.08
78117;BME280;69042;59.120;37.904;2023-09-30T05:30:51;100005.34;;;15.84;79.03
78117;BME280;69042;59.120;37.904;2023-09-30T05:33:19;99999.84;;;15.87;78.91
78117;BME280;69042;59.120;37.904;2023-09-30T05:35:46;100012.72;;;15.91;78.98
78117;BME280;69042;59.120;37.904;2023-09-30T05:38:13;100007.28;;;15.94;78.76
78117;BME280;69042;59.120;37.904;2023-09-30T05:40:39;100006.09;;;15.98;78.82
78117;BME280;69042;59.120;37.904;2023-09-30T05:43:05;100004.03;;;16.03;78.87
78117;BME280;69042;59.120;37.904;2023-09-30T05:45:32;99996.63;;;16.09;78.73
78117;BME280;69042;59.120;37.904;2023-09-30T05:48:02;100003.09;;;16.17;78.83
78117;BME280;69042;59.120;37.904;2023-09-30T05:50:35;100005.19;;;16.25;78.73
78117;BME280;69042;59.120;37.904;2023-09-30T05:53:02;100004.47;;;16.36;78.59
78117;BME280;69042;59.120;37.904;2023-09-30T05:55:30;100001.22;;;16.45;78.66
78117;BME280;69042;59.120;37.904;2023-09-30T05:57:56;99999.75;;;16.54;78.39
78117;BME280;69042;59.120;37.904;2023-09-30T06:00:23;99996.38;;;16.64;78.33
78117;BME280;69042;59.120;37.904;2023-09-30T06:02:54;99985.91;;;16.76;78.15
78117;BME280;69042;59.120;37.904;2023-09-30T06:05:21;99984.34;;;16.86;78.13
78117;BME280;69042;59.120;37.904;2023-09-30T06:07:52;99987.28;;;16.94;77.76
78117;BME280;69042;59.120;37.904;2023-09-30T06:10:19;99984.97;;;17.02;77.53
78117;BME280;69042;59.120;37.904;2023-09-30T06:12:47;99980.28;;;17.06;77.19
78117;BME280;69042;59.120;37.904;2023-09-30T06:15:14;99975.75;;;17.08;76.90
78117;BME280;69042;59.120;37.904;2023-09-30T06:17:42;99978.28;;;17.10;77.14
78117;BME280;69042;59.120;37.904;2023-09-30T06:20:09;99978.06;;;17.13;76.90
78117;BME280;69042;59.120;37.904;2023-09-30T06:22:42;99968.13;;;17.16;77.15
78117;BME280;69042;59.120;37.904;2023-09-30T06:25:14;99972.09;;;17.22;76.84
78117;BME280;69042;59.120;37.904;2023-09-30T06:27:46;99968.41;;;17.24;76.61
78117;BME280;69042;59.120;37.904;2023-09-30T06:30:16;99973.47;;;17.27;76.30
78117;BME280;69042;59.120;37.904;2023-09-30T06:32:43;99974.31;;;17.28;76.54
78117;BME280;69042;59.120;37.904;2023-09-30T06:35:11;99982.88;;;17.32;76.16
78117;BME280;69042;59.120;37.904;2023-09-30T06:37:38;99968.81;;;17.31;76.29
78117;BME280;69042;59.120;37.904;2023-09-30T06:40:06;99968.38;;;17.37;75.85
78117;BME280;69042;59.120;37.904;2023-09-30T06:42:34;99968.88;;;17.42;76.32
78117;BME280;69042;59.120;37.904;2023-09-30T06:45:04;99965.69;;;17.50;75.59
78117;BME280;69042;59.120;37.904;2023-09-30T06:47:35;99967.00;;;17.56;75.51
78117;BME280;69042;59.120;37.904;2023-09-30T06:50:11;99956.84;;;17.62;75.75
78117;BME280;69042;59.120;37.904;2023-09-30T06:52:43;99968.63;;;17.69;75.79
78117;BME280;69042;59.120;37.904;2023-09-30T06:55:11;99962.78;;;17.77;75.08
78117;BME280;69042;59.120;37.904;2023-09-30T06:57:40;99952.63;;;17.84;75.23
78117;BME280;69042;59.120;37.904;2023-09-30T07:02:35;99942.94;;;17.96;75.10
78117;BME280;69042;59.120;37.904;2023-09-30T07:05:09;99945.13;;;18.02;74.51
78117;BME280;69042;59.120;37.904;2023-09-30T07:07:35;99941.66;;;18.13;74.34
78117;BME280;69042;59.120;37.904;2023-09-30T07:10:03;99935.06;;;18.18;74.72
78117;BME280;69042;59.120;37.904;2023-09-30T07:12:30;99929.66;;;18.31;74.10
78117;BME280;69042;59.120;37.904;2023-09-30T07:14:58;99925.59;;;18.38;74.10
78117;BME280;69042;59.120;37.904;2023-09-30T07:17:24;99934.47;;;18.48;74.15
78117;BME280;69042;59.120;37.904;2023-09-30T07:19:51;99930.28;;;18.57;73.50
78117;BME280;69042;59.120;37.904;2023-09-30T07:22:17;99925.22;;;18.65;73.15
78117;BME280;69042;59.120;37.904;2023-09-30T07:24:43;99913.91;;;18.75;73.47
78117;BME280;69042;59.120;37.904;2023-09-30T07:27:09;99923.69;;;18.85;73.12
78117;BME280;69042;59.120;37.904;2023-09-30T07:29:35;99924.16;;;18.90;72.61
78117;BME280;69042;59.120;37.904;2023-09-30T07:32:02;99926.44;;;18.95;71.98
78117;BME280;69042;59.120;37.904;2023-09-30T07:34:28;99922.34;;;18.91;71.57
78117;BME280;69042;59.120;37.904;2023-09-30T07:36:54;99921.88;;;18.86;71.55
78117;BME280;69042;59.120;37.904;2023-09-30T07:39:21;99920.19;;;18.85;72.00
78117;BME280;69042;59.120;37.904;2023-09-30T07:41:47;99918.50;;;18.84;71.60
78117;BME280;69042;59.120;37.904;2023-09-30T07:44:13;99924.63;;;18.84;71.70
78117;BME280;69042;59.120;37.904;2023-09-30T07:46:40;99919.59;;;18.81;71.53
78117;BME280;69042;59.120;37.904;2023-09-30T07:49:10;99916.09;;;18.81;71.19
78117;BME280;69042;59.120;37.904;2023-09-30T07:51:41;99923.78;;;18.84;71.07
78117;BME280;69042;59.120;37.904;2023-09-30T07:54:08;99921.03;;;18.85;71.14
78117;BME280;69042;59.120;37.904;2023-09-30T07:56:34;99914.66;;;18.88;71.49
78117;BME280;69042;59.120;37.904;2023-09-30T07:59:00;99913.19;;;18.95;71.28
78117;BME280;69042;59.120;37.904;2023-09-30T08:01:27;99905.47;;;19.03;71.09
78117;BME280;69042;59.120;37.904;2023-09-30T08:03:55;99907.38;;;19.12;70.97
78117;BME280;69042;59.120;37.904;2023-09-30T08:06:22;99912.31;;;19.17;70.53
78117;BME280;69042;59.120;37.904;2023-09-30T08:08:49;99910.50;;;19.18;70.90
78117;BME280;69042;59.120;37.904;2023-09-30T08:11:17;99904.81;;;19.22;71.00
78117;BME280;69042;59.120;37.904;2023-09-30T08:13:44;99911.06;;;19.32;70.77
78117;BME280;69042;59.120;37.904;2023-09-30T08:16:10;99902.00;;;19.35;70.50
78117;BME280;69042;59.120;37.904;2023-09-30T08:18:36;99903.56;;;19.38;70.36
78117;BME280;69042;59.120;37.904;2023-09-30T08:21:03;99898.16;;;19.39;69.71
78117;BME280;69042;59.120;37.904;2023-09-30T08:23:30;99901.53;;;19.41;70.00
78117;BME280;69042;59.120;37.904;2023-09-30T08:25:59;99890.78;;;19.43;69.75
78117;BME280;69042;59.120;37.904;2023-09-30T08:28:25;99899.31;;;19.46;69.55
78117;BME280;69042;59.120;37.904;2023-09-30T08:30:51;99904.50;;;19.48;69.48
78117;BME280;69042;59.120;37.904;2023-09-30T08:33:20;99897.28;;;19.50;69.95
78117;BME280;69042;59.120;37.904;2023-09-30T08:35:46;99891.59;;;19.54;69.78
78117;BME280;69042;59.120;37.904;2023-09-30T08:38:12;99891.91;;;19.61;69.65
78117;BME280;69042;59.120;37.904;2023-09-30T08:40:39;99880.56;;;19.70;69.47
78117;BME280;69042;59.120;37.904;2023-09-30T08:43:09;99882.44;;;19.80;69.48
78117;BME280;69042;59.120;37.904;2023-09-30T08:45:39;99873.94;;;19.86;68.80
78117;BME280;69042;59.120;37.904;2023-09-30T08:48:09;99870.22;;;19.88;69.13
78117;BME280;69042;59.120;37.904;2023-09-30T08:50:39;99871.63;;;19.92;69.00
78117;BME280;69042;59.120;37.904;2023-09-30T08:53:10;99868.19;;;20.02;69.07
78117;BME280;69042;59.120;37.904;2023-09-30T08:55:37;99865.47;;;20.13;68.70
78117;BME280;69042;59.120;37.904;2023-09-30T08:58:06;99853.22;;;20.22;68.76
78117;BME280;69042;59.120;37.904;2023-09-30T09:00:33;99857.63;;;20.42;68.64
78117;BME280;69042;59.120;37.904;2023-09-30T09:03:04;99855.13;;;20.50;68.29
78117;BME280;69042;59.120;37.904;2023-09-30T09:05:34;99852.00;;;20.56;68.10
78117;BME280;69042;59.120;37.904;2023-09-30T09:08:02;99846.00;;;20.64;67.86
78117;BME280;69042;59.120;37.904;2023-09-30T09:10:29;99846.28;;;20.71;67.54
78117;BME280;69042;59.120;37.904;2023-09-30T09:12:56;99853.41;;;20.70;67.05
78117;BME280;69042;59.120;37.904;2023-09-30T09:15:28;99852.72;;;20.68;67.18
78117;BME280;69042;59.120;37.904;2023-09-30T09:17:54;99850.88;;;20.69;66.98
78117;BME280;69042;59.120;37.904;2023-09-30T09:20:22;99845.59;;;20.69;66.92
78117;BME280;69042;59.120;37.904;2023-09-30T09:22:50;99848.53;;;20.75;67.10
78117;BME280;69042;59.120;37.904;2023-09-30T09:25:20;99849.81;;;20.81;67.20
78117;BME280;69042;59.120;37.904;2023-09-30T09:27:52;99838.06;;;20.84;66.63
78117;BME280;69042;59.120;37.904;2023-09-30T09:30:23;99837.66;;;20.88;66.59
78117;BME280;69042;59.120;37.904;2023-09-30T09:33:00;99836.41;;;20.92;66.50
78117;BME280;69042;59.120;37.904;2023-09-30T09:35:27;99827.75;;;21.00;66.65
78117;BME280;69042;59.120;37.904;2023-09-30T09:38:06;99828.31;;;21.13;66.43
78117;BME280;69042;59.120;37.904;2023-09-30T09:40:36;99827.22;;;21.26;66.19
78117;BME280;69042;59.120;37.904;2023-09-30T09:43:04;99821.75;;;21.37;65.95
78117;BME280;69042;59.120;37.904;2023-09-30T09:45:36;99823.00;;;21.52;65.98
78117;BME280;69042;59.120;37.904;2023-09-30T09:48:04;99819.75;;;21.68;65.63
78117;BME280;69042;59.120;37.904;2023-09-30T09:50:30;99808.81;;;21.81;65.30
78117;BME280;69042;59.120;37.904;2023-09-30T09:53:03;99799.81;;;21.92;65.17
78117;BME280;69042;59.120;37.904;2023-09-30T09:55:31;99809.03;;;22.07;65.11
78117;BME280;69042;59.120;37.904;2023-09-30T09:58:01;99811.91;;;22.23;64.46
78117;BME280;69042;59.120;37.904;2023-09-30T10:00:28;99804.13;;;22.40;64.56
78117;BME280;69042;59.120;37.904;2023-09-30T10:02:57;99796.63;;;22.53;64.00
78117;BME280;69042;59.120;37.904;2023-09-30T10:05:24;99800.75;;;22.65;63.75
78117;BME280;69042;59.120;37.904;2023-09-30T10:08:07;99793.53;;;22.76;63.32
78117;BME280;69042;59.120;37.904;2023-09-30T10:10:37;99796.16;;;22.85;63.03
78117;BME280;69042;59.120;37.904;2023-09-30T10:13:04;99795.84;;;22.89;62.88
78117;BME280;69042;59.120;37.904;2023-09-30T10:20:31;99778.56;;;22.93;62.41
78117;BME280;69042;59.120;37.904;2023-09-30T10:23:23;99775.50;;;22.87;61.66
78117;BME280;69042;59.120;37.904;2023-09-30T10:28:52;99784.63;;;22.67;61.24
78117;BME280;69042;59.120;37.904;2023-09-30T10:31:22;99780.38;;;22.56;61.09
78117;BME280;69042;59.120;37.904;2023-09-30T10:36:32;99777.13;;;22.35;61.16
78117;BME280;69042;59.120;37.904;2023-09-30T10:38:59;99769.56;;;22.30;61.17
78117;BME280;69042;59.120;37.904;2023-09-30T10:44:36;99767.66;;;22.22;61.65
78117;BME280;69042;59.120;37.904;2023-09-30T10:47:37;99759.09;;;22.19;61.74
78117;BME280;69042;59.120;37.904;2023-09-30T10:50:03;99758.97;;;22.20;61.74
78117;BME280;69042;59.120;37.904;2023-09-30T10:52:31;99751.81;;;22.21;62.00
78117;BME280;69042;59.120;37.904;2023-09-30T10:55:04;99747.28;;;22.31;61.73
78117;BME280;69042;59.120;37.904;2023-09-30T10:57:32;99749.59;;;22.44;61.68
78117;BME280;69042;59.120;37.904;2023-09-30T11:00:09;99756.00;;;22.51;61.41
78117;BME280;69042;59.120;37.904;2023-09-30T11:02:50;99745.31;;;22.79;61.52
78117;BME280;69042;59.120;37.904;2023-09-30T11:05:18;99744.91;;;23.10;61.29
78117;BME280;69042;59.120;37.904;2023-09-30T11:07:49;99738.47;;;23.38;60.69
78117;BME280;69042;59.120;37.904;2023-09-30T11:10:17;99743.97;;;23.63;60.64
78117;BME280;69042;59.120;37.904;2023-09-30T11:12:57;99741.16;;;23.99;59.87
78117;BME280;69042;59.120;37.904;2023-09-30T11:15:24;99736.59;;;24.34;59.36
78117;BME280;69042;59.120;37.904;2023-09-30T11:18:15;99748.38;;;24.65;58.40
78117;BME280;69042;59.120;37.904;2023-09-30T11:20:43;99735.75;;;25.00;57.80
78117;BME280;69042;59.120;37.904;2023-09-30T11:23:11;99738.91;;;25.28;56.90
78117;BME280;69042;59.120;37.904;2023-09-30T11:25:38;99727.69;;;25.49;57.17
78117;BME280;69042;59.120;37.904;2023-09-30T11:28:16;99729.34;;;25.59;55.96
78117;BME280;69042;59.120;37.904;2023-09-30T11:30:58;99725.81;;;25.66;55.23
78117;BME280;69042;59.120;37.904;2023-09-30T11:33:25;99719.25;;;25.77;55.29
78117;BME280;69042;59.120;37.904;2023-09-30T11:36:05;99714.56;;;25.87;54.41
78117;BME280;69042;59.120;37.904;2023-09-30T11:38:32;99715.72;;;25.93;54.51
78117;BME280;69042;59.120;37.904;2023-09-30T11:41:06;99711.31;;;26.00;54.06
78117;BME280;69042;59.120;37.904;2023-09-30T11:43:33;99707.44;;;26.11;54.29
78117;BME280;69042;59.120;37.904;2023-09-30T11:46:11;99710.91;;;26.20;53.69
78117;BME280;69042;59.120;37.904;2023-09-30T11:48:58;99711.97;;;26.10;53.33
78117;BME280;69042;59.120;37.904;2023-09-30T11:51:29;99713.69;;;26.03;53.10
78117;BME280;69042;59.120;37.904;2023-09-30T11:53:57;99714.81;;;26.01;52.50
78117;BME280;69042;59.120;37.904;2023-09-30T11:56:26;99711.53;;;25.99;52.15
78117;BME280;69042;59.120;37.904;2023-09-30T11:58:56;99710.34;;;26.01;52.85
78117;BME280;69042;59.120;37.904;2023-09-30T12:01:22;99706.06;;;26.15;52.51
78117;BME280;69042;59.120;37.904;2023-09-30T12:03:51;99696.63;;;26.27;52.22
78117;BME280;69042;59.120;37.904;2023-09-30T12:06:18;99702.88;;;26.20;51.32
78117;BME280;69042;59.120;37.904;2023-09-30T12:08:44;99708.84;;;25.99;51.13
78117;BME280;69042;59.120;37.904;2023-09-30T12:11:11;99706.91;;;25.76;51.08
78117;BME280;69042;59.120;37.904;2023-09-30T12:13:41;99711.59;;;25.66;51.84
78117;BME280;69042;59.120;37.904;2023-09-30T12:16:11;99710.63;;;25.59;51.93
78117;BME280;69042;59.120;37.904;2023-09-30T12:18:39;99713.47;;;25.57;51.83
78117;BME280;69042;59.120;37.904;2023-09-30T12:21:10;99711.47;;;25.51;51.51
78117;BME280;69042;59.120;37.904;2023-09-30T12:23:39;99706.31;;;25.49;51.48
78117;BME280;69042;59.120;37.904;2023-09-30T12:26:05;99712.31;;;25.43;51.86
78117;BME280;69042;59.120;37.904;2023-09-30T12:28:32;99709.16;;;25.40;51.76
78117;BME280;69042;59.120;37.904;2023-09-30T12:31:01;99698.13;;;25.34;52.10
78117;BME280;69042;59.120;37.904;2023-09-30T12:33:29;99702.66;;;25.26;52.10
78117;BME280;69042;59.120;37.904;2023-09-30T12:35:56;99710.16;;;25.14;52.11
78117;BME280;69042;59.120;37.904;2023-09-30T12:38:26;99711.34;;;25.03;52.04
78117;BME280;69042;59.120;37.904;2023-09-30T12:40:54;99710.19;;;24.89;52.24
78117;BME280;69042;59.120;37.904;2023-09-30T12:43:21;99705.81;;;24.72;51.94
78117;BME280;69042;59.120;37.904;2023-09-30T12:45:48;99709.31;;;24.56;52.22
78117;BME280;69042;59.120;37.904;2023-09-30T12:48:14;99692.22;;;24.41;52.86
78117;BME280;69042;59.120;37.904;2023-09-30T12:50:41;99697.72;;;24.31;52.76
78117;BME280;69042;59.120;37.904;2023-09-30T12:53:07;99699.88;;;24.19;53.36
78117;BME280;69042;59.120;37.904;2023-09-30T12:55:34;99698.66;;;24.05;53.10
78117;BME280;69042;59.120;37.904;2023-09-30T12:58:00;99684.41;;;23.88;53.78
78117;BME280;69042;59.120;37.904;2023-09-30T13:00:27;99682.22;;;23.76;54.01
78117;BME280;69042;59.120;37.904;2023-09-30T13:02:57;99678.25;;;23.62;54.43
78117;BME280;69042;59.120;37.904;2023-09-30T13:05:23;99681.72;;;23.54;54.30
78117;BME280;69042;59.120;37.904;2023-09-30T13:07:51;99681.47;;;23.39;54.47